sensor_id;sensor_type;location;lat;lon;timestamp;temperature;humidity
9881;DHT22;4979;51.014;6.678;2023-02-13T00:01:38;8.90;99.90
9881;DHT22;4979;51.014;6.678;2023-02-13T00:04:03;8.90;99.90
9881;DHT22;4979;51.014;6.678;2023-02-13T00:06:29;8.90;99.90
9881;DHT22;4979;51.014;6.678;2023-02-13T00:08:55;8.90;99.90
9881;DHT22;4979;51.014;6.678;2023-02-13T00:11:20;8.90;99.90
9881;DHT22;4979;51.014;6.678;2023-02-13T00:13:46;8.90;99.90
9881;DHT22;4979;51.014;6.678;2023-02-13T00:16:11;8.80;99.90
9881;DHT22;4979;51.014;6.678;2023-02-13T00:18:38;8.80;99.90
9881;DHT22;4979;51.014;6.678;2023-02-13T00:21:07;8.80;99.90
9881;DHT22;4979;51.014;6.678;2023-02-13T00:23:34;8.80;99.90
9881;DHT22;4979;51.014;6.678;2023-02-13T00:26:00;8.80;99.90
9881;DHT22;4979;51.014;6.678;2023-02-13T00:28:29;8.90;99.90
9881;DHT22;4979;51.014;6.678;2023-02-13T00:31:02;8.80;99.90
9881;DHT22;4979;51.014;6.678;2023-02-13T00:33:27;8.80;99.90
9881;DHT22;4979;51.014;6.678;2023-02-13T00:36:08;8.80;99.90
9881;DHT22;4979;51.014;6.678;2023-02-13T00:38:35;8.80;99.90
9881;DHT22;4979;51.014;6.678;2023-02-13T00:41:02;8.80;99.90
9881;DHT22;4979;51.014;6.678;2023-02-13T00:43:27;8.80;99.90
9881;DHT22;4979;51.014;6.678;2023-02-13T00:45:53;8.70;99.90
9881;DHT22;4979;51.014;6.678;2023-02-13T00:48:19;8.60;99.90
9881;DHT22;4979;51.014;6.678;2023-02-13T00:50:45;8.60;99.90
9881;DHT22;4979;51.014;6.678;2023-02-13T00:53:11;8.60;99.90
9881;DHT22;4979;51.014;6.678;2023-02-13T00:55:37;8.60;99.90
9881;DHT22;4979;51.014;6.678;2023-02-13T00:58:03;8.60;99.90
9881;DHT22;4979;51.014;6.678;2023-02-13T01:00:30;8.50;99.90
9881;DHT22;4979;51.014;6.678;2023-02-13T01:02:55;8.50;99.90
9881;DHT22;4979;51.014;6.678;2023-02-13T01:05:21;8.50;99.90
9881;DHT22;4979;51.014;6.678;2023-02-13T01:07:49;8.50;99.90
9881;DHT22;4979;51.014;6.678;2023-02-13T01:10:15;8.40;99.90
9881;DHT22;4979;51.014;6.678;2023-02-13T01:12:40;8.50;99.90
9881;DHT22;4979;51.014;6.678;2023-02-13T01:15:06;8.50;99.90
9881;DHT22;4979;51.014;6.678;2023-02-13T01:17:32;8.40;99.90
9881;DHT22;4979;51.014;6.678;2023-02-13T01:19:57;8.40;99.90
9881;DHT22;4979;51.014;6.678;2023-02-13T01:22:23;8.40;99.90
9881;DHT22;4979;51.014;6.678;2023-02-13T01:24:48;8.40;99.90
9881;DHT22;4979;51.014;6.678;2023-02-13T01:27:14;8.40;99.90
9881;DHT22;4979;51.014;6.678;2023-02-13T01:29:39;8.40;99.90
9881;DHT22;4979;51.014;6.678;2023-02-13T01:32:05;8.40;99.90
9881;DHT22;4979;51.014;6.678;2023-02-13T01:34:32;8.40;99.90
9881;DHT22;4979;51.014;6.678;2023-02-13T01:36:58;8.40;99.90
9881;DHT22;4979;51.014;6.678;2023-02-13T01:39:23;8.40;99.90
9881;DHT22;4979;51.014;6.678;2023-02-13T01:41:49;8.40;99.90
9881;DHT22;4979;51.014;6.678;2023-02-13T01:47:39;8.40;99.90
9881;DHT22;4979;51.014;6.678;2023-02-13T01:50:19;8.40;99.90
9881;DHT22;4979;51.014;6.678;2023-02-13T01:53:11;8.40;99.90
9881;DHT22;4979;51.014;6.678;2023-02-13T01:55:44;8.40;99.90
9881;DHT22;4979;51.014;6.678;2023-02-13T01:58:15;8.40;99.90
9881;DHT22;4979;51.014;6.678;2023-02-13T02:00:42;8.40;99.90
9881;DHT22;4979;51.014;6.678;2023-02-13T02:03:11;8.40;99.90
9881;DHT22;4979;51.014;6.678;2023-02-13T02:05:38;8.30;99.90
9881;DHT22;4979;51.014;6.678;2023-02-13T02:08:06;8.30;99.90
9881;DHT22;4979;51.014;6.678;2023-02-13T02:10:35;8.30;99.90
9881;DHT22;4979;51.014;6.678;2023-02-13T02:15:31;8.30;99.90
9881;DHT22;4979;51.014;6.678;2023-02-13T02:17:56;8.30;99.90
9881;DHT22;4979;51.014;6.678;2023-02-13T02:20:29;8.30;99.90
9881;DHT22;4979;51.014;6.678;2023-02-13T02:32:02;8.20;99.90
9881;DHT22;4979;51.014;6.678;2023-02-13T02:37:28;8.20;99.90
9881;DHT22;4979;51.014;6.678;2023-02-13T02:43:03;8.20;99.90
9881;DHT22;4979;51.014;6.678;2023-02-13T02:45:50;8.20;99.90
9881;DHT22;4979;51.014;6.678;2023-02-13T02:48:31;8.20;99.90
9881;DHT22;4979;51.014;6.678;2023-02-13T02:51:48;8.20;99.90
9881;DHT22;4979;51.014;6.678;2023-02-13T02:54:29;8.20;99.90
9881;DHT22;4979;51.014;6.678;2023-02-13T02:57:20;8.20;99.90
9881;DHT22;4979;51.014;6.678;2023-02-13T02:59:48;8.10;99.90
9881;DHT22;4979;51.014;6.678;2023-02-13T03:02:33;8.20;99.90
9881;DHT22;4979;51.014;6.678;2023-02-13T03:05:27;8.10;99.90
9881;DHT22;4979;51.014;6.678;2023-02-13T03:08:13;8.10;99.90
9881;DHT22;4979;51.014;6.678;2023-02-13T03:10:39;8.10;99.90
9881;DHT22;4979;51.014;6.678;2023-02-13T03:13:44;8.10;99.90
9881;DHT22;4979;51.014;6.678;2023-02-13T03:16:16;8.00;99.90
9881;DHT22;4979;51.014;6.678;2023-02-13T03:19:01;8.00;99.90
9881;DHT22;4979;51.014;6.678;2023-02-13T03:21:58;8.00;99.90
9881;DHT22;4979;51.014;6.678;2023-02-13T03:24:45;8.00;99.90
9881;DHT22;4979;51.014;6.678;2023-02-13T03:33:04;7.90;99.90
9881;DHT22;4979;51.014;6.678;2023-02-13T03:36:08;7.90;99.90
9881;DHT22;4979;51.014;6.678;2023-02-13T03:44:12;7.80;99.90
9881;DHT22;4979;51.014;6.678;2023-02-13T03:46:46;7.80;99.90
9881;DHT22;4979;51.014;6.678;2023-02-13T03:49:39;7.80;99.90
9881;DHT22;4979;51.014;6.678;2023-02-13T03:55:19;7.80;99.90
9881;DHT22;4979;51.014;6.678;2023-02-13T03:58:10;7.70;99.90
9881;DHT22;4979;51.014;6.678;2023-02-13T04:00:59;7.70;99.90
9881;DHT22;4979;51.014;6.678;2023-02-13T04:03:39;7.70;99.90
9881;DHT22;4979;51.014;6.678;2023-02-13T04:06:15;7.70;99.90
9881;DHT22;4979;51.014;6.678;2023-02-13T04:08:44;7.60;99.90
9881;DHT22;4979;51.014;6.678;2023-02-13T04:11:19;7.60;99.90
9881;DHT22;4979;51.014;6.678;2023-02-13T04:14:26;7.60;99.90
9881;DHT22;4979;51.014;6.678;2023-02-13T04:16:46;7.60;99.90
9881;DHT22;4979;51.014;6.678;2023-02-13T04:19:14;7.60;99.90
9881;DHT22;4979;51.014;6.678;2023-02-13T04:21:40;7.50;99.90
9881;DHT22;4979;51.014;6.678;2023-02-13T04:24:06;7.50;99.90
9881;DHT22;4979;51.014;6.678;2023-02-13T04:26:38;7.50;99.90
9881;DHT22;4979;51.014;6.678;2023-02-13T04:29:05;7.50;99.90
9881;DHT22;4979;51.014;6.678;2023-02-13T04:31:30;7.50;99.90
9881;DHT22;4979;51.014;6.678;2023-02-13T04:33:56;7.40;99.90
9881;DHT22;4979;51.014;6.678;2023-02-13T04:36:22;7.40;99.90
9881;DHT22;4979;51.014;6.678;2023-02-13T04:38:47;7.40;99.90
9881;DHT22;4979;51.014;6.678;2023-02-13T04:41:13;7.40;99.90
9881;DHT22;4979;51.014;6.678;2023-02-13T04:43:38;7.30;99.90
9881;DHT22;4979;51.014;6.678;2023-02-13T04:46:04;7.30;99.90
9881;DHT22;4979;51.014;6.678;2023-02-13T04:48:30;7.30;99.90
9881;DHT22;4979;51.014;6.678;2023-02-13T04:50:56;7.30;99.90
9881;DHT22;4979;51.014;6.678;2023-02-13T04:53:21;7.30;99.90
9881;DHT22;4979;51.014;6.678;2023-02-13T04:55:47;7.30;99.90
9881;DHT22;4979;51.014;6.678;2023-02-13T04:58:13;7.20;99.90
9881;DHT22;4979;51.014;6.678;2023-02-13T05:00:39;7.20;99.90
9881;DHT22;4979;51.014;6.678;2023-02-13T05:03:06;7.20;99.90
9881;DHT22;4979;51.014;6.678;2023-02-13T05:05:32;7.20;99.90
9881;DHT22;4979;51.014;6.678;2023-02-13T05:07:58;7.20;99.90
9881;DHT22;4979;51.014;6.678;2023-02-13T05:10:23;7.20;99.90
9881;DHT22;4979;51.014;6.678;2023-02-13T05:12:49;7.20;99.90
9881;DHT22;4979;51.014;6.678;2023-02-13T05:15:14;7.20;99.90
9881;DHT22;4979;51.014;6.678;2023-02-13T05:17:43;7.20;99.90
9881;DHT22;4979;51.014;6.678;2023-02-13T05:20:09;7.20;99.90
9881;DHT22;4979;51.014;6.678;2023-02-13T05:22:34;7.20;99.90
9881;DHT22;4979;51.014;6.678;2023-02-13T05:25:19;7.10;99.90
9881;DHT22;4979;51.014;6.678;2023-02-13T05:27:44;7.10;99.90
9881;DHT22;4979;51.014;6.678;2023-02-13T05:30:10;7.00;99.90
9881;DHT22;4979;51.014;6.678;2023-02-13T05:32:36;7.10;99.90
9881;DHT22;4979;51.014;6.678;2023-02-13T05:35:03;7.10;99.90
9881;DHT22;4979;51.014;6.678;2023-02-13T05:37:28;7.10;99.90
9881;DHT22;4979;51.014;6.678;2023-02-13T05:39:54;7.00;99.90
9881;DHT22;4979;51.014;6.678;2023-02-13T05:42:19;7.10;99.90
9881;DHT22;4979;51.014;6.678;2023-02-13T05:44:45;7.00;99.90
9881;DHT22;4979;51.014;6.678;2023-02-13T05:47:10;7.00;99.90
9881;DHT22;4979;51.014;6.678;2023-02-13T05:49:36;7.00;99.90
9881;DHT22;4979;51.014;6.678;2023-02-13T05:52:02;6.90;99.90
9881;DHT22;4979;51.014;6.678;2023-02-13T05:54:27;6.90;99.90
9881;DHT22;4979;51.014;6.678;2023-02-13T05:56:53;6.90;99.90
9881;DHT22;4979;51.014;6.678;2023-02-13T05:59:18;6.90;99.90
9881;DHT22;4979;51.014;6.678;2023-02-13T06:01:44;6.90;99.90
9881;DHT22;4979;51.014;6.678;2023-02-13T06:04:09;6.80;99.90
9881;DHT22;4979;51.014;6.678;2023-02-13T06:06:35;6.90;99.90
9881;DHT22;4979;51.014;6.678;2023-02-13T06:09:00;6.80;99.90
9881;DHT22;4979;51.014;6.678;2023-02-13T06:11:26;6.90;99.90
9881;DHT22;4979;51.014;6.678;2023-02-13T06:13:51;6.80;99.90
9881;DHT22;4979;51.014;6.678;2023-02-13T06:16:17;6.80;99.90
9881;DHT22;4979;51.014;6.678;2023-02-13T06:18:42;6.70;99.90
9881;DHT22;4979;51.014;6.678;2023-02-13T06:21:08;6.70;99.90
9881;DHT22;4979;51.014;6.678;2023-02-13T06:23:34;6.80;99.90
9881;DHT22;4979;51.014;6.678;2023-02-13T06:26:04;6.80;99.90
9881;DHT22;4979;51.014;6.678;2023-02-13T06:28:30;6.60;99.90
9881;DHT22;4979;51.014;6.678;2023-02-13T06:30:56;6.70;99.90
9881;DHT22;4979;51.014;6.678;2023-02-13T06:33:22;6.70;99.90
9881;DHT22;4979;51.014;6.678;2023-02-13T06:35:47;6.60;99.90
9881;DHT22;4979;51.014;6.678;2023-02-13T06:38:13;6.70;99.90
9881;DHT22;4979;51.014;6.678;2023-02-13T06:40:38;6.70;99.90
9881;DHT22;4979;51.014;6.678;2023-02-13T06:43:04;6.60;99.90
9881;DHT22;4979;51.014;6.678;2023-02-13T06:45:30;6.50;99.90
9881;DHT22;4979;51.014;6.678;2023-02-13T06:47:55;6.50;99.90
9881;DHT22;4979;51.014;6.678;2023-02-13T06:50:21;6.50;99.90
9881;DHT22;4979;51.014;6.678;2023-02-13T06:52:48;6.50;99.90
9881;DHT22;4979;51.014;6.678;2023-02-13T06:55:14;6.50;99.90
9881;DHT22;4979;51.014;6.678;2023-02-13T06:57:41;6.40;99.90
9881;DHT22;4979;51.014;6.678;2023-02-13T07:00:08;6.40;99.90
9881;DHT22;4979;51.014;6.678;2023-02-13T07:02:36;6.50;99.90
9881;DHT22;4979;51.014;6.678;2023-02-13T07:05:02;6.50;99.90
9881;DHT22;4979;51.014;6.678;2023-02-13T07:07:32;6.30;99.90
9881;DHT22;4979;51.014;6.678;2023-02-13T07:09:58;8.50;99.90
9881;DHT22;4979;51.014;6.678;2023-02-13T07:12:23;6.40;99.90
9881;DHT22;4979;51.014;6.678;2023-02-13T07:14:49;6.40;99.90
9881;DHT22;4979;51.014;6.678;2023-02-13T07:17:14;6.30;99.90
9881;DHT22;4979;51.014;6.678;2023-02-13T07:19:40;6.30;99.90
9881;DHT22;4979;51.014;6.678;2023-02-13T07:22:05;6.30;99.90
9881;DHT22;4979;51.014;6.678;2023-02-13T07:24:31;6.40;99.90
9881;DHT22;4979;51.014;6.678;2023-02-13T07:26:59;6.30;99.90
9881;DHT22;4979;51.014;6.678;2023-02-13T07:29:25;6.40;99.90
9881;DHT22;4979;51.014;6.678;2023-02-13T07:31:51;6.40;99.90
9881;DHT22;4979;51.014;6.678;2023-02-13T07:34:17;6.40;99.90
9881;DHT22;4979;51.014;6.678;2023-02-13T07:36:42;6.50;99.90
9881;DHT22;4979;51.014;6.678;2023-02-13T07:39:08;6.40;99.90
9881;DHT22;4979;51.014;6.678;2023-02-13T07:41:33;6.50;99.90
9881;DHT22;4979;51.014;6.678;2023-02-13T07:43:59;6.50;99.90
9881;DHT22;4979;51.014;6.678;2023-02-13T07:46:24;6.60;99.90
9881;DHT22;4979;51.014;6.678;2023-02-13T07:48:53;6.60;99.90
9881;DHT22;4979;51.014;6.678;2023-02-13T07:51:19;6.60;99.90
9881;DHT22;4979;51.014;6.678;2023-02-13T07:53:45;6.60;99.90
9881;DHT22;4979;51.014;6.678;2023-02-13T07:56:10;6.60;99.90
9881;DHT22;4979;51.014;6.678;2023-02-13T07:58:37;6.70;99.90
9881;DHT22;4979;51.014;6.678;2023-02-13T08:01:09;6.80;99.90
9881;DHT22;4979;51.014;6.678;2023-02-13T08:03:36;6.70;99.90
9881;DHT22;4979;51.014;6.678;2023-02-13T08:06:02;6.90;99.90
9881;DHT22;4979;51.014;6.678;2023-02-13T08:08:28;6.90;99.90
9881;DHT22;4979;51.014;6.678;2023-02-13T08:10:54;7.00;99.90
9881;DHT22;4979;51.014;6.678;2023-02-13T08:13:39;7.10;99.90
9881;DHT22;4979;51.014;6.678;2023-02-13T08:16:04;7.20;99.90
9881;DHT22;4979;51.014;6.678;2023-02-13T08:18:30;7.40;99.90
9881;DHT22;4979;51.014;6.678;2023-02-13T08:20:55;7.50;99.90
9881;DHT22;4979;51.014;6.678;2023-02-13T08:23:21;11.10;99.90
9881;DHT22;4979;51.014;6.678;2023-02-13T08:25:47;7.70;99.90
9881;DHT22;4979;51.014;6.678;2023-02-13T08:28:14;7.90;99.90
9881;DHT22;4979;51.014;6.678;2023-02-13T08:30:40;8.00;99.90
9881;DHT22;4979;51.014;6.678;2023-02-13T08:33:06;8.10;99.90
9881;DHT22;4979;51.014;6.678;2023-02-13T08:35:31;8.10;99.90
9881;DHT22;4979;51.014;6.678;2023-02-13T08:38:01;8.20;99.90
9881;DHT22;4979;51.014;6.678;2023-02-13T08:40:27;8.30;99.90
9881;DHT22;4979;51.014;6.678;2023-02-13T08:42:59;8.30;99.90
9881;DHT22;4979;51.014;6.678;2023-02-13T08:45:24;8.40;99.90
9881;DHT22;4979;51.014;6.678;2023-02-13T08:47:50;8.40;99.90
9881;DHT22;4979;51.014;6.678;2023-02-13T08:50:16;8.50;99.90
9881;DHT22;4979;51.014;6.678;2023-02-13T08:52:41;8.60;99.90
9881;DHT22;4979;51.014;6.678;2023-02-13T08:55:07;8.70;99.90
9881;DHT22;4979;51.014;6.678;2023-02-13T08:57:33;8.70;99.90
9881;DHT22;4979;51.014;6.678;2023-02-13T08:59:58;8.70;99.90
9881;DHT22;4979;51.014;6.678;2023-02-13T09:02:24;8.70;99.90
9881;DHT22;4979;51.014;6.678;2023-02-13T09:04:49;8.80;99.90
9881;DHT22;4979;51.014;6.678;2023-02-13T09:07:15;8.80;99.90
9881;DHT22;4979;51.014;6.678;2023-02-13T09:09:40;8.90;99.90
9881;DHT22;4979;51.014;6.678;2023-02-13T09:12:06;9.00;99.90
9881;DHT22;4979;51.014;6.678;2023-02-13T09:14:31;9.10;99.90
9881;DHT22;4979;51.014;6.678;2023-02-13T09:16:57;9.20;99.90
9881;DHT22;4979;51.014;6.678;2023-02-13T09:19:23;9.20;99.90
9881;DHT22;4979;51.014;6.678;2023-02-13T09:21:48;9.30;99.90
9881;DHT22;4979;51.014;6.678;2023-02-13T09:24:14;9.30;99.90
9881;DHT22;4979;51.014;6.678;2023-02-13T09:26:40;9.40;99.90
9881;DHT22;4979;51.014;6.678;2023-02-13T09:29:05;9.50;99.90
9881;DHT22;4979;51.014;6.678;2023-02-13T09:31:31;9.50;99.90
9881;DHT22;4979;51.014;6.678;2023-02-13T09:33:56;9.30;99.90
9881;DHT22;4979;51.014;6.678;2023-02-13T09:36:23;9.40;99.90
9881;DHT22;4979;51.014;6.678;2023-02-13T09:38:56;9.50;99.90
9881;DHT22;4979;51.014;6.678;2023-02-13T09:44:02;9.50;99.90
9881;DHT22;4979;51.014;6.678;2023-02-13T09:46:37;9.50;99.90
9881;DHT22;4979;51.014;6.678;2023-02-13T09:49:22;9.50;99.90
9881;DHT22;4979;51.014;6.678;2023-02-13T09:51:55;9.70;99.90
9881;DHT22;4979;51.014;6.678;2023-02-13T09:54:21;9.80;99.90
9881;DHT22;4979;51.014;6.678;2023-02-13T09:56:51;9.80;99.90
9881;DHT22;4979;51.014;6.678;2023-02-13T10:08:18;10.10;99.90
9881;DHT22;4979;51.014;6.678;2023-02-13T10:10:56;10.20;99.90
9881;DHT22;4979;51.014;6.678;2023-02-13T10:21:25;10.60;99.90
9881;DHT22;4979;51.014;6.678;2023-02-13T10:24:10;10.60;99.90
9881;DHT22;4979;51.014;6.678;2023-02-13T10:26:40;10.60;99.90
9881;DHT22;4979;51.014;6.678;2023-02-13T10:29:23;10.80;99.90
9881;DHT22;4979;51.014;6.678;2023-02-13T10:32:11;10.90;99.90
9881;DHT22;4979;51.014;6.678;2023-02-13T10:34:45;11.00;99.90
9881;DHT22;4979;51.014;6.678;2023-02-13T10:37:18;10.90;99.90
9881;DHT22;4979;51.014;6.678;2023-02-13T10:39:49;11.00;99.90
9881;DHT22;4979;51.014;6.678;2023-02-13T10:42:35;11.00;99.90
9881;DHT22;4979;51.014;6.678;2023-02-13T10:53:42;11.20;99.90
9881;DHT22;4979;51.014;6.678;2023-02-13T10:56:30;11.20;99.90
9881;DHT22;4979;51.014;6.678;2023-02-13T11:04:12;11.60;99.90
9881;DHT22;4979;51.014;6.678;2023-02-13T11:06:55;11.60;99.90
9881;DHT22;4979;51.014;6.678;2023-02-13T11:09:22;11.80;99.90
9881;DHT22;4979;51.014;6.678;2023-02-13T11:11:48;11.80;99.90
9881;DHT22;4979;51.014;6.678;2023-02-13T11:14:22;11.90;99.90
9881;DHT22;4979;51.014;6.678;2023-02-13T11:16:54;11.90;99.90
9881;DHT22;4979;51.014;6.678;2023-02-13T11:19:30;11.90;99.90
9881;DHT22;4979;51.014;6.678;2023-02-13T11:22:04;11.90;99.90
9881;DHT22;4979;51.014;6.678;2023-02-13T11:24:31;12.00;99.90
9881;DHT22;4979;51.014;6.678;2023-02-13T11:27:00;11.90;99.90
9881;DHT22;4979;51.014;6.678;2023-02-13T11:29:31;12.10;99.90
9881;DHT22;4979;51.014;6.678;2023-02-13T11:34:41;12.30;99.90
9881;DHT22;4979;51.014;6.678;2023-02-13T11:37:22;12.20;99.90
9881;DHT22;4979;51.014;6.678;2023-02-13T11:39:50;12.30;99.90
9881;DHT22;4979;51.014;6.678;2023-02-13T11:42:20;12.40;99.90
9881;DHT22;4979;51.014;6.678;2023-02-13T11:44:51;12.30;99.90
9881;DHT22;4979;51.014;6.678;2023-02-13T11:47:33;12.30;99.90
9881;DHT22;4979;51.014;6.678;2023-02-13T11:49:59;12.30;99.90
9881;DHT22;4979;51.014;6.678;2023-02-13T11:52:28;12.30;99.90
9881;DHT22;4979;51.014;6.678;2023-02-13T11:55:04;12.40;99.90
9881;DHT22;4979;51.014;6.678;2023-02-13T11:57:35;12.60;99.90
9881;DHT22;4979;51.014;6.678;2023-02-13T12:00:26;12.50;99.90
9881;DHT22;4979;51.014;6.678;2023-02-13T12:02:52;12.50;99.90
9881;DHT22;4979;51.014;6.678;2023-02-13T12:05:21;12.60;99.90
9881;DHT22;4979;51.014;6.678;2023-02-13T12:07:47;12.60;99.90
9881;DHT22;4979;51.014;6.678;2023-02-13T12:10:23;12.70;99.90
9881;DHT22;4979;51.014;6.678;2023-02-13T12:15:27;12.80;99.90
9881;DHT22;4979;51.014;6.678;2023-02-13T12:24:03;12.90;99.90
9881;DHT22;4979;51.014;6.678;2023-02-13T12:26:53;13.00;99.90
9881;DHT22;4979;51.014;6.678;2023-02-13T12:29:57;13.00;99.90
9881;DHT22;4979;51.014;6.678;2023-02-13T12:39:00;13.00;99.90
9881;DHT22;4979;51.014;6.678;2023-02-13T12:44:42;13.10;99.90
9881;DHT22;4979;51.014;6.678;2023-02-13T12:55:17;13.00;99.90
9881;DHT22;4979;51.014;6.678;2023-02-13T13:01:03;13.10;99.90
9881;DHT22;4979;51.014;6.678;2023-02-13T13:03:35;13.10;99.90
9881;DHT22;4979;51.014;6.678;2023-02-13T13:17:07;13.10;99.90
9881;DHT22;4979;51.014;6.678;2023-02-13T13:20:06;13.10;99.90
9881;DHT22;4979;51.014;6.678;2023-02-13T13:23:18;13.20;99.90
9881;DHT22;4979;51.014;6.678;2023-02-13T13:28:25;13.20;99.90
9881;DHT22;4979;51.014;6.678;2023-02-13T13:30:52;13.20;99.90
9881;DHT22;4979;51.014;6.678;2023-02-13T13:33:23;13.20;99.90
9881;DHT22;4979;51.014;6.678;2023-02-13T13:44:05;13.20;99.90
9881;DHT22;4979;51.014;6.678;2023-02-13T13:46:43;13.20;99.90
9881;DHT22;4979;51.014;6.678;2023-02-13T13:49:25;13.20;99.90
9881;DHT22;4979;51.014;6.678;2023-02-13T13:51:51;13.20;99.90
9881;DHT22;4979;51.014;6.678;2023-02-13T13:54:21;13.20;99.90
9881;DHT22;4979;51.014;6.678;2023-02-13T13:57:07;14.70;99.90
9881;DHT22;4979;51.014;6.678;2023-02-13T14:05:01;13.30;99.90
9881;DHT22;4979;51.014;6.678;2023-02-13T14:07:37;13.20;99.90
9881;DHT22;4979;51.014;6.678;2023-02-13T14:10:04;13.20;99.90
9881;DHT22;4979;51.014;6.678;2023-02-13T14:14:56;13.20;99.90
9881;DHT22;4979;51.014;6.678;2023-02-13T14:22:46;13.20;99.90
9881;DHT22;4979;51.014;6.678;2023-02-13T14:25:25;13.30;99.90
9881;DHT22;4979;51.014;6.678;2023-02-13T14:28:02;13.30;99.90
9881;DHT22;4979;51.014;6.678;2023-02-13T14:30:36;13.30;99.90
9881;DHT22;4979;51.014;6.678;2023-02-13T14:33:06;13.30;99.90
9881;DHT22;4979;51.014;6.678;2023-02-13T14:35:35;13.30;99.90
9881;DHT22;4979;51.014;6.678;2023-02-13T14:38:06;13.20;99.90
9881;DHT22;4979;51.014;6.678;2023-02-13T14:40:46;13.20;99.90
9881;DHT22;4979;51.014;6.678;2023-02-13T14:46:20;13.30;99.90
9881;DHT22;4979;51.014;6.678;2023-02-13T14:48:55;13.30;99.90
9881;DHT22;4979;51.014;6.678;2023-02-13T14:51:37;13.30;99.90
9881;DHT22;4979;51.014;6.678;2023-02-13T14:56:39;13.20;99.90
9881;DHT22;4979;51.014;6.678;2023-02-13T14:59:24;13.30;99.90
9881;DHT22;4979;51.014;6.678;2023-02-13T15:02:08;13.30;99.90
9881;DHT22;4979;51.014;6.678;2023-02-13T15:04:48;13.30;99.90
9881;DHT22;4979;51.014;6.678;2023-02-13T15:07:21;13.20;99.90
9881;DHT22;4979;51.014;6.678;2023-02-13T15:09:59;13.30;99.90
9881;DHT22;4979;51.014;6.678;2023-02-13T15:12:31;13.30;99.90
9881;DHT22;4979;51.014;6.678;2023-02-13T15:14:58;13.30;99.90
9881;DHT22;4979;51.014;6.678;2023-02-13T15:17:30;13.30;99.90
9881;DHT22;4979;51.014;6.678;2023-02-13T15:20:07;13.30;99.90
9881;DHT22;4979;51.014;6.678;2023-02-13T15:22:45;13.20;99.90
9881;DHT22;4979;51.014;6.678;2023-02-13T15:27:55;13.20;99.90
9881;DHT22;4979;51.014;6.678;2023-02-13T15:30:24;13.20;99.90
9881;DHT22;4979;51.014;6.678;2023-02-13T15:32:59;13.20;99.90
9881;DHT22;4979;51.014;6.678;2023-02-13T15:35:33;13.20;99.90
9881;DHT22;4979;51.014;6.678;2023-02-13T15:38:15;13.10;99.90
9881;DHT22;4979;51.014;6.678;2023-02-13T15:40:41;13.10;99.90
9881;DHT22;4979;51.014;6.678;2023-02-13T15:43:21;13.10;99.90
9881;DHT22;4979;51.014;6.678;2023-02-13T15:45:47;13.10;99.90
9881;DHT22;4979;51.014;6.678;2023-02-13T15:48:15;13.00;99.90
9881;DHT22;4979;51.014;6.678;2023-02-13T15:50:41;13.00;99.90
9881;DHT22;4979;51.014;6.678;2023-02-13T15:53:12;13.00;99.90
9881;DHT22;4979;51.014;6.678;2023-02-13T15:55:39;12.90;99.90
9881;DHT22;4979;51.014;6.678;2023-02-13T15:58:05;12.90;99.90
9881;DHT22;4979;51.014;6.678;2023-02-13T16:00:40;12.80;99.90
9881;DHT22;4979;51.014;6.678;2023-02-13T16:03:13;12.80;99.90
9881;DHT22;4979;51.014;6.678;2023-02-13T16:05:40;12.70;99.90
9881;DHT22;4979;51.014;6.678;2023-02-13T16:08:30;12.60;99.90
9881;DHT22;4979;51.014;6.678;2023-02-13T16:19:21;12.10;99.90
9881;DHT22;4979;51.014;6.678;2023-02-13T16:21:49;12.10;99.90
9881;DHT22;4979;51.014;6.678;2023-02-13T16:24:15;12.00;99.90
9881;DHT22;4979;51.014;6.678;2023-02-13T16:26:42;11.90;99.90
9881;DHT22;4979;51.014;6.678;2023-02-13T16:29:18;11.80;99.90
9881;DHT22;4979;51.014;6.678;2023-02-13T16:31:45;11.70;99.90
9881;DHT22;4979;51.014;6.678;2023-02-13T16:34:26;11.60;99.90
9881;DHT22;4979;51.014;6.678;2023-02-13T16:36:53;11.50;99.90
9881;DHT22;4979;51.014;6.678;2023-02-13T16:39:25;11.50;99.90
9881;DHT22;4979;51.014;6.678;2023-02-13T16:41:51;11.40;99.90
9881;DHT22;4979;51.014;6.678;2023-02-13T16:44:27;11.30;99.90
9881;DHT22;4979;51.014;6.678;2023-02-13T16:46:58;11.20;99.90
9881;DHT22;4979;51.014;6.678;2023-02-13T16:49:31;11.10;99.90
9881;DHT22;4979;51.014;6.678;2023-02-13T16:54:35;10.90;99.90
9881;DHT22;4979;51.014;6.678;2023-02-13T16:59:50;10.80;99.90
9881;DHT22;4979;51.014;6.678;2023-02-13T17:10:05;10.60;99.90
9881;DHT22;4979;51.014;6.678;2023-02-13T17:12:35;10.50;99.90
9881;DHT22;4979;51.014;6.678;2023-02-13T17:15:01;10.50;99.90
9881;DHT22;4979;51.014;6.678;2023-02-13T17:17:28;10.50;99.90
9881;DHT22;4979;51.014;6.678;2023-02-13T17:19:55;10.40;99.90
9881;DHT22;4979;51.014;6.678;2023-02-13T17:22:41;10.40;99.90
9881;DHT22;4979;51.014;6.678;2023-02-13T17:25:28;10.30;99.90
9881;DHT22;4979;51.014;6.678;2023-02-13T17:27:56;10.20;99.90
9881;DHT22;4979;51.014;6.678;2023-02-13T17:30:27;10.20;99.90
9881;DHT22;4979;51.014;6.678;2023-02-13T17:33:02;10.20;99.90
9881;DHT22;4979;51.014;6.678;2023-02-13T17:35:28;10.20;99.90
9881;DHT22;4979;51.014;6.678;2023-02-13T17:37:53;10.10;99.90
9881;DHT22;4979;51.014;6.678;2023-02-13T17:40:21;10.10;99.90
9881;DHT22;4979;51.014;6.678;2023-02-13T17:42:51;10.00;99.90
9881;DHT22;4979;51.014;6.678;2023-02-13T17:45:19;10.00;99.90
9881;DHT22;4979;51.014;6.678;2023-02-13T17:47:45;10.00;99.90
9881;DHT22;4979;51.014;6.678;2023-02-13T17:50:12;10.00;99.90
9881;DHT22;4979;51.014;6.678;2023-02-13T17:52:38;9.90;99.90
9881;DHT22;4979;51.014;6.678;2023-02-13T17:55:06;9.90;99.90
9881;DHT22;4979;51.014;6.678;2023-02-13T17:57:32;9.90;99.90
9881;DHT22;4979;51.014;6.678;2023-02-13T17:59:58;9.80;99.90
9881;DHT22;4979;51.014;6.678;2023-02-13T18:02:27;9.80;99.90
9881;DHT22;4979;51.014;6.678;2023-02-13T18:04:53;9.70;99.90
9881;DHT22;4979;51.014;6.678;2023-02-13T18:07:20;9.70;99.90
9881;DHT22;4979;51.014;6.678;2023-02-13T18:09:45;9.70;99.90
9881;DHT22;4979;51.014;6.678;2023-02-13T18:12:21;9.60;99.90
9881;DHT22;4979;51.014;6.678;2023-02-13T18:14:47;9.60;99.90
9881;DHT22;4979;51.014;6.678;2023-02-13T18:17:14;9.60;99.90
9881;DHT22;4979;51.014;6.678;2023-02-13T18:19:40;9.50;99.90
9881;DHT22;4979;51.014;6.678;2023-02-13T18:22:07;9.50;99.90
9881;DHT22;4979;51.014;6.678;2023-02-13T18:24:35;9.50;99.90
9881;DHT22;4979;51.014;6.678;2023-02-13T18:27:02;9.50;99.90
9881;DHT22;4979;51.014;6.678;2023-02-13T18:29:27;9.40;99.90
9881;DHT22;4979;51.014;6.678;2023-02-13T18:31:53;9.40;99.90
9881;DHT22;4979;51.014;6.678;2023-02-13T18:34:20;9.40;99.90
9881;DHT22;4979;51.014;6.678;2023-02-13T18:36:46;9.30;99.90
9881;DHT22;4979;51.014;6.678;2023-02-13T18:39:13;9.30;99.90
9881;DHT22;4979;51.014;6.678;2023-02-13T18:41:38;9.30;99.90
9881;DHT22;4979;51.014;6.678;2023-02-13T18:44:04;9.20;99.90
9881;DHT22;4979;51.014;6.678;2023-02-13T18:46:30;9.20;99.90
9881;DHT22;4979;51.014;6.678;2023-02-13T18:48:55;9.20;99.90
9881;DHT22;4979;51.014;6.678;2023-02-13T18:51:21;9.10;99.90
9881;DHT22;4979;51.014;6.678;2023-02-13T18:53:47;9.10;99.90
9881;DHT22;4979;51.014;6.678;2023-02-13T18:56:13;9.10;99.90
9881;DHT22;4979;51.014;6.678;2023-02-13T18:58:39;9.10;99.90
9881;DHT22;4979;51.014;6.678;2023-02-13T19:01:13;9.00;99.90
9881;DHT22;4979;51.014;6.678;2023-02-13T19:03:40;9.00;99.90
9881;DHT22;4979;51.014;6.678;2023-02-13T19:06:08;9.00;99.90
9881;DHT22;4979;51.014;6.678;2023-02-13T19:08:35;8.90;99.90
9881;DHT22;4979;51.014;6.678;2023-02-13T19:11:07;8.90;99.90
9881;DHT22;4979;51.014;6.678;2023-02-13T19:13:32;8.90;99.90
9881;DHT22;4979;51.014;6.678;2023-02-13T19:16:05;8.80;99.90
9881;DHT22;4979;51.014;6.678;2023-02-13T19:18:35;8.80;99.90